sensor_id;sensor_type;location;lat;lon;timestamp;temperature;humidity
69324;DHT22;56470;47.350;8.718;2024-02-21T00:00:54;6.96;70.08
69324;DHT22;56470;47.350;8.718;2024-02-21T00:03:20;7.00;69.95
69324;DHT22;56470;47.350;8.718;2024-02-21T00:05:45;7.03;69.73
69324;DHT22;56470;47.350;8.718;2024-02-21T00:08:10;7.01;69.69
69324;DHT22;56470;47.350;8.718;2024-02-21T00:10:36;7.00;69.62
69324;DHT22;56470;47.350;8.718;2024-02-21T00:13:01;6.98;69.49
69324;DHT22;56470;47.350;8.718;2024-02-21T00:15:27;6.96;69.44
69324;DHT22;56470;47.350;8.718;2024-02-21T00:17:55;6.93;69.46
69324;DHT22;56470;47.350;8.718;2024-02-21T00:20:21;6.88;69.42
69324;DHT22;56470;47.350;8.718;2024-02-21T00:22:46;6.90;69.49
69324;DHT22;56470;47.350;8.718;2024-02-21T00:25:12;6.87;69.53
69324;DHT22;56470;47.350;8.718;2024-02-21T00:27:39;6.86;69.54
69324;DHT22;56470;47.350;8.718;2024-02-21T00:30:05;6.83;69.55
69324;DHT22;56470;47.350;8.718;2024-02-21T00:32:31;6.79;69.54
69324;DHT22;56470;47.350;8.718;2024-02-21T00:35:05;6.72;69.58
69324;DHT22;56470;47.350;8.718;2024-02-21T00:37:31;6.69;69.56
69324;DHT22;56470;47.350;8.718;2024-02-21T00:39:57;6.65;69.73
69324;DHT22;56470;47.350;8.718;2024-02-21T00:42:25;6.63;69.67
69324;DHT22;56470;47.350;8.718;2024-02-21T00:44:50;6.62;69.84
69324;DHT22;56470;47.350;8.718;2024-02-21T00:47:15;6.65;69.81
69324;DHT22;56470;47.350;8.718;2024-02-21T00:49:41;6.63;69.82
69324;DHT22;56470;47.350;8.718;2024-02-21T00:52:06;6.63;69.78
69324;DHT22;56470;47.350;8.718;2024-02-21T00:54:32;6.65;69.73
69324;DHT22;56470;47.350;8.718;2024-02-21T00:56:57;6.62;69.75
69324;DHT22;56470;47.350;8.718;2024-02-21T00:59:22;6.62;69.84
69324;DHT22;56470;47.350;8.718;2024-02-21T01:01:48;6.60;69.96
69324;DHT22;56470;47.350;8.718;2024-02-21T01:04:13;6.59;69.81
69324;DHT22;56470;47.350;8.718;2024-02-21T01:06:39;6.53;69.87
69324;DHT22;56470;47.350;8.718;2024-02-21T01:09:08;6.45;69.96
69324;DHT22;56470;47.350;8.718;2024-02-21T01:11:33;6.38;70.12
69324;DHT22;56470;47.350;8.718;2024-02-21T01:14:01;6.33;70.21
69324;DHT22;56470;47.350;8.718;2024-02-21T01:16:27;6.35;70.25
69324;DHT22;56470;47.350;8.718;2024-02-21T01:18:52;6.35;70.20
69324;DHT22;56470;47.350;8.718;2024-02-21T01:21:18;6.41;70.17
69324;DHT22;56470;47.350;8.718;2024-02-21T01:23:43;6.45;70.21
69324;DHT22;56470;47.350;8.718;2024-02-21T01:26:09;6.49;70.11
69324;DHT22;56470;47.350;8.718;2024-02-21T01:28:38;6.52;70.03
69324;DHT22;56470;47.350;8.718;2024-02-21T01:31:03;6.57;70.06
69324;DHT22;56470;47.350;8.718;2024-02-21T01:33:29;6.60;69.99
69324;DHT22;56470;47.350;8.718;2024-02-21T01:36:00;6.67;69.79
69324;DHT22;56470;47.350;8.718;2024-02-21T01:38:28;6.80;69.48
69324;DHT22;56470;47.350;8.718;2024-02-21T01:40:54;6.80;69.29
69324;DHT22;56470;47.350;8.718;2024-02-21T01:43:20;6.79;69.22
69324;DHT22;56470;47.350;8.718;2024-02-21T01:45:50;6.66;69.22
69324;DHT22;56470;47.350;8.718;2024-02-21T01:48:18;6.65;69.43
69324;DHT22;56470;47.350;8.718;2024-02-21T01:50:49;6.60;69.34
69324;DHT22;56470;47.350;8.718;2024-02-21T01:53:20;6.53;69.32
69324;DHT22;56470;47.350;8.718;2024-02-21T01:55:46;6.53;69.46
69324;DHT22;56470;47.350;8.718;2024-02-21T01:58:15;6.50;69.53
69324;DHT22;56470;47.350;8.718;2024-02-21T02:00:45;6.50;69.50
69324;DHT22;56470;47.350;8.718;2024-02-21T02:03:11;6.50;69.55
69324;DHT22;56470;47.350;8.718;2024-02-21T02:05:44;6.48;69.44
69324;DHT22;56470;47.350;8.718;2024-02-21T02:08:10;6.43;69.44
69324;DHT22;56470;47.350;8.718;2024-02-21T02:10:39;6.38;69.50
69324;DHT22;56470;47.350;8.718;2024-02-21T02:13:05;6.36;69.67
69324;DHT22;56470;47.350;8.718;2024-02-21T02:15:43;6.33;69.62
69324;DHT22;56470;47.350;8.718;2024-02-21T02:18:09;6.25;69.73
69324;DHT22;56470;47.350;8.718;2024-02-21T02:20:36;6.22;69.97
69324;DHT22;56470;47.350;8.718;2024-02-21T02:25:32;6.08;70.29
69324;DHT22;56470;47.350;8.718;2024-02-21T02:27:58;5.93;70.60
69324;DHT22;56470;47.350;8.718;2024-02-21T02:30:24;5.91;70.88
69324;DHT22;56470;47.350;8.718;2024-02-21T02:32:49;5.97;70.84
69324;DHT22;56470;47.350;8.718;2024-02-21T02:35:14;6.04;70.77
69324;DHT22;56470;47.350;8.718;2024-02-21T02:37:40;6.10;70.61
69324;DHT22;56470;47.350;8.718;2024-02-21T02:40:06;6.14;70.68
69324;DHT22;56470;47.350;8.718;2024-02-21T02:42:32;6.11;70.72
69324;DHT22;56470;47.350;8.718;2024-02-21T02:44:58;6.17;70.62
69324;DHT22;56470;47.350;8.718;2024-02-21T02:47:23;6.18;70.67
69324;DHT22;56470;47.350;8.718;2024-02-21T02:49:48;6.20;70.67
69324;DHT22;56470;47.350;8.718;2024-02-21T02:52:16;6.18;70.69
69324;DHT22;56470;47.350;8.718;2024-02-21T02:54:42;6.22;70.68
69324;DHT22;56470;47.350;8.718;2024-02-21T02:57:07;6.26;70.64
69324;DHT22;56470;47.350;8.718;2024-02-21T02:59:33;6.31;70.67
69324;DHT22;56470;47.350;8.718;2024-02-21T03:01:58;6.33;70.73
69324;DHT22;56470;47.350;8.718;2024-02-21T03:04:24;6.38;70.68
69324;DHT22;56470;47.350;8.718;2024-02-21T03:06:49;6.45;70.69
69324;DHT22;56470;47.350;8.718;2024-02-21T03:09:18;6.49;70.65
69324;DHT22;56470;47.350;8.718;2024-02-21T03:11:43;6.53;70.57
69324;DHT22;56470;47.350;8.718;2024-02-21T03:14:09;6.56;70.47
69324;DHT22;56470;47.350;8.718;2024-02-21T03:16:42;6.57;70.22
69324;DHT22;56470;47.350;8.718;2024-02-21T03:19:08;6.57;70.15
69324;DHT22;56470;47.350;8.718;2024-02-21T03:21:33;6.59;70.08
69324;DHT22;56470;47.350;8.718;2024-02-21T03:23:58;6.56;70.06
69324;DHT22;56470;47.350;8.718;2024-02-21T03:26:24;6.52;70.09
69324;DHT22;56470;47.350;8.718;2024-02-21T03:28:54;6.53;70.14
69324;DHT22;56470;47.350;8.718;2024-02-21T03:31:19;6.53;70.17
69324;DHT22;56470;47.350;8.718;2024-02-21T03:33:44;6.36;70.30
69324;DHT22;56470;47.350;8.718;2024-02-21T03:36:14;6.22;70.53
69324;DHT22;56470;47.350;8.718;2024-02-21T03:38:40;6.24;70.73
69324;DHT22;56470;47.350;8.718;2024-02-21T03:41:06;6.29;70.53
69324;DHT22;56470;47.350;8.718;2024-02-21T03:43:31;6.28;70.56
69324;DHT22;56470;47.350;8.718;2024-02-21T03:45:56;6.28;70.66
69324;DHT22;56470;47.350;8.718;2024-02-21T03:48:22;6.25;70.73
69324;DHT22;56470;47.350;8.718;2024-02-21T03:50:47;6.18;70.90
69324;DHT22;56470;47.350;8.718;2024-02-21T03:53:12;6.11;71.19
69324;DHT22;56470;47.350;8.718;2024-02-21T03:55:38;6.08;71.01
69324;DHT22;56470;47.350;8.718;2024-02-21T03:58:03;6.04;71.07
69324;DHT22;56470;47.350;8.718;2024-02-21T04:00:29;6.03;71.16
69324;DHT22;56470;47.350;8.718;2024-02-21T04:02:54;6.00;71.13
69324;DHT22;56470;47.350;8.718;2024-02-21T04:05:21;5.96;71.09
69324;DHT22;56470;47.350;8.718;2024-02-21T04:07:46;5.90;71.19
69324;DHT22;56470;47.350;8.718;2024-02-21T04:10:12;5.93;71.08
69324;DHT22;56470;47.350;8.718;2024-02-21T04:12:37;6.05;70.98
69324;DHT22;56470;47.350;8.718;2024-02-21T04:15:04;6.13;70.88
69324;DHT22;56470;47.350;8.718;2024-02-21T04:17:29;6.17;70.61
69324;DHT22;56470;47.350;8.718;2024-02-21T04:20:04;6.18;70.47
69324;DHT22;56470;47.350;8.718;2024-02-21T04:22:31;6.20;70.23
69324;DHT22;56470;47.350;8.718;2024-02-21T04:24:59;6.17;70.25
69324;DHT22;56470;47.350;8.718;2024-02-21T04:27:24;6.11;70.40
69324;DHT22;56470;47.350;8.718;2024-02-21T04:29:50;6.11;70.42
69324;DHT22;56470;47.350;8.718;2024-02-21T04:32:15;6.10;70.42
69324;DHT22;56470;47.350;8.718;2024-02-21T04:34:41;6.11;70.64
69324;DHT22;56470;47.350;8.718;2024-02-21T04:37:06;6.14;70.61
69324;DHT22;56470;47.350;8.718;2024-02-21T04:39:32;6.13;70.60
69324;DHT22;56470;47.350;8.718;2024-02-21T04:41:58;6.18;70.51
69324;DHT22;56470;47.350;8.718;2024-02-21T04:44:26;6.24;70.30
69324;DHT22;56470;47.350;8.718;2024-02-21T04:46:51;6.24;70.23
69324;DHT22;56470;47.350;8.718;2024-02-21T04:49:17;6.26;70.14
69324;DHT22;56470;47.350;8.718;2024-02-21T04:51:42;6.35;70.12
69324;DHT22;56470;47.350;8.718;2024-02-21T04:54:08;6.39;70.03
69324;DHT22;56470;47.350;8.718;2024-02-21T04:56:34;6.50;70.04
69324;DHT22;56470;47.350;8.718;2024-02-21T04:59:00;6.59;69.86
69324;DHT22;56470;47.350;8.718;2024-02-21T05:01:25;6.69;69.66
69324;DHT22;56470;47.350;8.718;2024-02-21T05:03:50;6.73;69.43
69324;DHT22;56470;47.350;8.718;2024-02-21T05:06:16;6.79;69.39
69324;DHT22;56470;47.350;8.718;2024-02-21T05:08:42;6.83;69.43
69324;DHT22;56470;47.350;8.718;2024-02-21T05:11:07;6.83;69.34
69324;DHT22;56470;47.350;8.718;2024-02-21T05:13:32;6.80;69.49
69324;DHT22;56470;47.350;8.718;2024-02-21T05:15:58;6.83;69.32
69324;DHT22;56470;47.350;8.718;2024-02-21T05:18:26;6.81;69.37
69324;DHT22;56470;47.350;8.718;2024-02-21T05:20:52;6.76;69.41
69324;DHT22;56470;47.350;8.718;2024-02-21T05:23:17;6.75;69.44
69324;DHT22;56470;47.350;8.718;2024-02-21T05:25:42;6.75;69.52
69324;DHT22;56470;47.350;8.718;2024-02-21T05:28:08;6.73;69.61
69324;DHT22;56470;47.350;8.718;2024-02-21T05:30:33;6.73;69.76
69324;DHT22;56470;47.350;8.718;2024-02-21T05:32:59;6.72;69.80
69324;DHT22;56470;47.350;8.718;2024-02-21T05:35:28;6.72;69.75
69324;DHT22;56470;47.350;8.718;2024-02-21T05:37:53;6.67;69.81
69324;DHT22;56470;47.350;8.718;2024-02-21T05:40:19;6.67;69.74
69324;DHT22;56470;47.350;8.718;2024-02-21T05:42:44;6.72;69.71
69324;DHT22;56470;47.350;8.718;2024-02-21T05:45:09;6.70;69.70
69324;DHT22;56470;47.350;8.718;2024-02-21T05:47:35;6.70;69.73
69324;DHT22;56470;47.350;8.718;2024-02-21T05:50:00;6.69;69.79
69324;DHT22;56470;47.350;8.718;2024-02-21T05:52:26;6.69;69.91
69324;DHT22;56470;47.350;8.718;2024-02-21T05:54:51;6.66;69.87
69324;DHT22;56470;47.350;8.718;2024-02-21T05:57:19;6.70;69.88
69324;DHT22;56470;47.350;8.718;2024-02-21T05:59:45;6.66;69.81
69324;DHT22;56470;47.350;8.718;2024-02-21T06:02:10;6.62;69.78
69324;DHT22;56470;47.350;8.718;2024-02-21T06:04:36;6.50;70.08
69324;DHT22;56470;47.350;8.718;2024-02-21T06:07:01;6.53;69.77
69324;DHT22;56470;47.350;8.718;2024-02-21T06:09:32;6.52;69.65
69324;DHT22;56470;47.350;8.718;2024-02-21T06:11:58;6.43;70.18
69324;DHT22;56470;47.350;8.718;2024-02-21T06:14:23;6.35;70.14
69324;DHT22;56470;47.350;8.718;2024-02-21T06:16:49;6.33;70.26
69324;DHT22;56470;47.350;8.718;2024-02-21T06:19:14;6.25;70.31
69324;DHT22;56470;47.350;8.718;2024-02-21T06:21:39;6.21;70.36
69324;DHT22;56470;47.350;8.718;2024-02-21T06:24:05;6.24;70.48
69324;DHT22;56470;47.350;8.718;2024-02-21T06:26:30;6.22;70.49
69324;DHT22;56470;47.350;8.718;2024-02-21T06:28:58;6.21;70.47
69324;DHT22;56470;47.350;8.718;2024-02-21T06:31:25;6.17;70.50
69324;DHT22;56470;47.350;8.718;2024-02-21T06:33:50;6.14;70.57
69324;DHT22;56470;47.350;8.718;2024-02-21T06:36:16;6.07;70.50
69324;DHT22;56470;47.350;8.718;2024-02-21T06:38:41;5.97;70.61
69324;DHT22;56470;47.350;8.718;2024-02-21T06:41:14;5.97;70.73
69324;DHT22;56470;47.350;8.718;2024-02-21T06:43:40;5.98;70.82
69324;DHT22;56470;47.350;8.718;2024-02-21T06:46:05;6.05;70.62
69324;DHT22;56470;47.350;8.718;2024-02-21T06:48:30;6.15;70.74
69324;DHT22;56470;47.350;8.718;2024-02-21T06:50:56;6.24;70.74
69324;DHT22;56470;47.350;8.718;2024-02-21T06:53:21;6.33;70.64
69324;DHT22;56470;47.350;8.718;2024-02-21T06:55:47;6.41;70.55
69324;DHT22;56470;47.350;8.718;2024-02-21T06:58:14;6.49;70.48
69324;DHT22;56470;47.350;8.718;2024-02-21T07:00:42;6.57;70.35
69324;DHT22;56470;47.350;8.718;2024-02-21T07:03:08;6.57;70.18
69324;DHT22;56470;47.350;8.718;2024-02-21T07:05:33;6.57;70.22
69324;DHT22;56470;47.350;8.718;2024-02-21T07:07:59;6.52;70.36
69324;DHT22;56470;47.350;8.718;2024-02-21T07:10:24;6.54;70.55
69324;DHT22;56470;47.350;8.718;2024-02-21T07:12:49;6.65;70.48
69324;DHT22;56470;47.350;8.718;2024-02-21T07:15:17;6.77;70.33
69324;DHT22;56470;47.350;8.718;2024-02-21T07:17:49;6.90;70.35
69324;DHT22;56470;47.350;8.718;2024-02-21T07:20:18;7.00;70.18
69324;DHT22;56470;47.350;8.718;2024-02-21T07:22:45;7.15;70.15
69324;DHT22;56470;47.350;8.718;2024-02-21T07:25:14;7.29;69.78
69324;DHT22;56470;47.350;8.718;2024-02-21T07:27:39;7.43;69.42
69324;DHT22;56470;47.350;8.718;2024-02-21T07:30:12;7.56;69.10
69324;DHT22;56470;47.350;8.718;2024-02-21T07:32:50;7.70;68.83
69324;DHT22;56470;47.350;8.718;2024-02-21T07:35:22;7.87;68.49
69324;DHT22;56470;47.350;8.718;2024-02-21T07:37:56;8.08;68.04
69324;DHT22;56470;47.350;8.718;2024-02-21T07:40:27;8.29;67.66
69324;DHT22;56470;47.350;8.718;2024-02-21T07:43:20;8.48;67.43
69324;DHT22;56470;47.350;8.718;2024-02-21T07:46:13;8.71;66.93
69324;DHT22;56470;47.350;8.718;2024-02-21T07:48:48;8.98;66.35
69324;DHT22;56470;47.350;8.718;2024-02-21T07:51:27;9.14;65.48
69324;DHT22;56470;47.350;8.718;2024-02-21T07:53:53;9.16;65.22
69324;DHT22;56470;47.350;8.718;2024-02-21T07:56:54;9.26;65.36
69324;DHT22;56470;47.350;8.718;2024-02-21T08:02:47;9.58;63.86
69324;DHT22;56470;47.350;8.718;2024-02-21T08:06:03;9.56;62.40
69324;DHT22;56470;47.350;8.718;2024-02-21T09:29:21;10.12;55.45
69324;DHT22;56470;47.350;8.718;2024-02-21T09:35:50;10.37;56.61
69324;DHT22;56470;47.350;8.718;2024-02-21T15:38:50;12.80;52.92
69324;DHT22;56470;47.350;8.718;2024-02-21T15:41:15;12.80;52.98
69324;DHT22;56470;47.350;8.718;2024-02-21T15:43:40;12.80;52.68
69324;DHT22;56470;47.350;8.718;2024-02-21T15:46:07;12.81;52.85
69324;DHT22;56470;47.350;8.718;2024-02-21T15:48:33;12.84;53.03
69324;DHT22;56470;47.350;8.718;2024-02-21T15:51:00;12.85;53.08
69324;DHT22;56470;47.350;8.718;2024-02-21T15:53:26;12.87;52.93
69324;DHT22;56470;47.350;8.718;2024-02-21T15:55:51;12.91;52.97
69324;DHT22;56470;47.350;8.718;2024-02-21T15:58:16;12.94;52.79
69324;DHT22;56470;47.350;8.718;2024-02-21T16:00:45;12.92;52.90
69324;DHT22;56470;47.350;8.718;2024-02-21T16:03:10;12.91;52.87
69324;DHT22;56470;47.350;8.718;2024-02-21T16:05:35;12.85;52.85
69324;DHT22;56470;47.350;8.718;2024-02-21T16:08:01;12.83;52.70
69324;DHT22;56470;47.350;8.718;2024-02-21T16:10:26;12.80;53.07
69324;DHT22;56470;47.350;8.718;2024-02-21T16:12:51;12.81;53.36
69324;DHT22;56470;47.350;8.718;2024-02-21T16:15:16;12.65;54.11
69324;DHT22;56470;47.350;8.718;2024-02-21T16:17:42;12.53;54.41
69324;DHT22;56470;47.350;8.718;2024-02-21T16:30:03;12.04;56.22
69324;DHT22;56470;47.350;8.718;2024-02-21T16:39:56;11.71;56.83
69324;DHT22;56470;47.350;8.718;2024-02-21T16:49:09;11.56;56.83
69324;DHT22;56470;47.350;8.718;2024-02-21T17:23:40;11.14;55.34
69324;DHT22;56470;47.350;8.718;2024-02-21T17:35:14;11.15;55.51
69324;DHT22;56470;47.350;8.718;2024-02-21T17:45:44;11.14;55.56
69324;DHT22;56470;47.350;8.718;2024-02-21T17:48:15;11.11;55.56
69324;DHT22;56470;47.350;8.718;2024-02-21T18:09:22;10.95;55.84
69324;DHT22;56470;47.350;8.718;2024-02-21T18:12:19;11.01;55.80
69324;DHT22;56470;47.350;8.718;2024-02-21T18:15:41;11.08;55.79
69324;DHT22;56470;47.350;8.718;2024-02-21T18:18:39;11.15;56.15
69324;DHT22;56470;47.350;8.718;2024-02-21T18:21:33;11.20;56.35
69324;DHT22;56470;47.350;8.718;2024-02-21T18:24:06;11.23;56.43
69324;DHT22;56470;47.350;8.718;2024-02-21T18:27:03;11.26;56.73
69324;DHT22;56470;47.350;8.718;2024-02-21T18:30:04;11.29;56.68
69324;DHT22;56470;47.350;8.718;2024-02-21T18:32:41;11.25;56.85
69324;DHT22;56470;47.350;8.718;2024-02-21T18:35:21;11.18;57.00
69324;DHT22;56470;47.350;8.718;2024-02-21T18:38:23;11.12;57.26
69324;DHT22;56470;47.350;8.718;2024-02-21T18:41:23;11.04;57.40
69324;DHT22;56470;47.350;8.718;2024-02-21T18:47:27;10.97;57.27
69324;DHT22;56470;47.350;8.718;2024-02-21T18:50:39;10.88;57.20
69324;DHT22;56470;47.350;8.718;2024-02-21T18:59:46;10.82;57.52
69324;DHT22;56470;47.350;8.718;2024-02-21T19:05:43;10.81;57.68
69324;DHT22;56470;47.350;8.718;2024-02-21T19:19:32;10.92;57.48
69324;DHT22;56470;47.350;8.718;2024-02-21T19:22:16;10.97;57.59
69324;DHT22;56470;47.350;8.718;2024-02-21T19:25:00;11.02;57.63
69324;DHT22;56470;47.350;8.718;2024-02-21T19:28:19;10.99;57.28
69324;DHT22;56470;47.350;8.718;2024-02-21T19:30:55;10.98;57.59
69324;DHT22;56470;47.350;8.718;2024-02-21T19:34:12;10.98;57.59
69324;DHT22;56470;47.350;8.718;2024-02-21T19:37:04;11.12;57.59
69324;DHT22;56470;47.350;8.718;2024-02-21T19:39:43;11.15;57.50
69324;DHT22;56470;47.350;8.718;2024-02-21T19:52:43;10.73;58.35
69324;DHT22;56470;47.350;8.718;2024-02-21T19:56:16;10.82;57.38
69324;DHT22;56470;47.350;8.718;2024-02-21T20:09:52;10.80;57.76
69324;DHT22;56470;47.350;8.718;2024-02-21T20:13:01;10.77;57.56
69324;DHT22;56470;47.350;8.718;2024-02-21T20:19:41;10.88;57.83
69324;DHT22;56470;47.350;8.718;2024-02-21T20:22:42;10.98;57.72
69324;DHT22;56470;47.350;8.718;2024-02-21T20:25:53;11.02;57.14
69324;DHT22;56470;47.350;8.718;2024-02-21T20:28:31;11.08;57.31
69324;DHT22;56470;47.350;8.718;2024-02-21T20:41:01;11.22;57.24
69324;DHT22;56470;47.350;8.718;2024-02-21T20:43:44;11.11;56.69
69324;DHT22;56470;47.350;8.718;2024-02-21T20:46:36;11.02;57.42
69324;DHT22;56470;47.350;8.718;2024-02-21T20:49:14;11.04;57.61
69324;DHT22;56470;47.350;8.718;2024-02-21T20:59:41;10.95;57.53
69324;DHT22;56470;47.350;8.718;2024-02-21T21:13:35;10.84;58.55
69324;DHT22;56470;47.350;8.718;2024-02-21T21:30:04;10.90;58.40
69324;DHT22;56470;47.350;8.718;2024-02-21T21:46:23;10.78;59.22
69324;DHT22;56470;47.350;8.718;2024-02-21T21:49:38;10.84;59.09
69324;DHT22;56470;47.350;8.718;2024-02-21T21:52:53;10.91;58.76
69324;DHT22;56470;47.350;8.718;2024-02-21T21:56:29;10.87;58.52
69324;DHT22;56470;47.350;8.718;2024-02-21T22:02:50;10.81;58.76
69324;DHT22;56470;47.350;8.718;2024-02-21T22:15:34;10.98;57.30
69324;DHT22;56470;47.350;8.718;2024-02-21T22:18:16;11.07;57.99
69324;DHT22;56470;47.350;8.718;2024-02-21T22:24:18;11.22;58.12
69324;DHT22;56470;47.350;8.718;2024-02-21T22:27:35;11.27;57.90
69324;DHT22;56470;47.350;8.718;2024-02-21T22:30:50;11.20;57.56
69324;DHT22;56470;47.350;8.718;2024-02-21T22:33:34;11.23;57.89
69324;DHT22;56470;47.350;8.718;2024-02-21T22:39:54;11.19;57.83
69324;DHT22;56470;47.350;8.718;2024-02-21T22:46:27;11.20;58.07
69324;DHT22;56470;47.350;8.718;2024-02-21T23:03:00;11.30;57.88
69324;DHT22;56470;47.350;8.718;2024-02-21T23:05:56;11.27;57.93
69324;DHT22;56470;47.350;8.718;2024-02-21T23:08:53;11.23;58.17
69324;DHT22;56470;47.350;8.718;2024-02-21T23:14:47;11.27;58.35
69324;DHT22;56470;47.350;8.718;2024-02-21T23:20:38;11.27;58.58
69324;DHT22;56470;47.350;8.718;2024-02-21T23:26:49;11.35;58.55
69324;DHT22;56470;47.350;8.718;2024-02-21T23:29:48;11.40;58.49
69324;DHT22;56470;47.350;8.718;2024-02-21T23:32:24;11.40;58.47
69324;DHT22;56470;47.350;8.718;2024-02-21T23:35:49;11.37;58.61
69324;DHT22;56470;47.350;8.718;2024-02-21T23:41:42;11.42;58.67
69324;DHT22;56470;47.350;8.718;2024-02-21T23:44:22;11.39;58.76
69324;DHT22;56470;47.350;8.718;2024-02-21T23:47:15;11.37;59.02
69324;DHT22;56470;47.350;8.718;2024-02-21T23:50:04;11.35;58.84
69324;DHT22;56470;47.350;8.718;2024-02-21T23:52:44;11.30;58.74
69324;DHT22;56470;47.350;8.718;2024-02-21T23:55:39;11.25;58.30
69324;DHT22;56470;47.350;8.718;2024-02-21T23:58:45;11.32;58.76
